createdAt,value
2019-03-24T00:01:58.585Z,4.74
2019-03-24T00:04:29.670Z,4.74
2019-03-24T00:07:00.895Z,4.73
2019-03-24T00:09:31.913Z,4.71
2019-03-24T00:12:03.027Z,4.64
2019-03-24T00:14:34.106Z,4.67
2019-03-24T00:17:04.947Z,4.73
2019-03-24T00:19:35.703Z,4.83
2019-03-24T00:22:07.217Z,4.87
2019-03-24T00:24:38.611Z,4.85
2019-03-24T00:27:09.705Z,4.83
2019-03-24T00:29:40.740Z,4.78
2019-03-24T00:32:11.805Z,4.79
2019-03-24T00:34:42.906Z,4.76
2019-03-24T00:37:13.982Z,4.77
2019-03-24T00:39:45.019Z,4.75
2019-03-24T00:42:16.290Z,4.70
2019-03-24T00:44:47.282Z,4.68
2019-03-24T00:47:18.183Z,4.64
2019-03-24T00:49:49.061Z,4.51
2019-03-24T00:52:19.963Z,4.47
2019-03-24T00:54:51.285Z,4.36
2019-03-24T00:57:22.306Z,4.46
2019-03-24T00:59:53.328Z,4.43
2019-03-24T01:02:24.229Z,4.44
2019-03-24T01:04:55.442Z,4.44
2019-03-24T01:07:26.462Z,4.41
2019-03-24T01:09:57.530Z,4.35
2019-03-24T01:12:28.443Z,4.32
2019-03-24T01:15:01.571Z,4.32
2019-03-24T01:17:33.309Z,4.32
2019-03-24T01:20:04.621Z,4.25
2019-03-24T01:22:35.451Z,4.19
2019-03-24T01:25:06.570Z,4.16
2019-03-24T01:27:37.585Z,4.17
2019-03-24T01:30:09.530Z,4.13
2019-03-24T01:32:40.410Z,4.08
2019-03-24T01:35:11.488Z,3.96
2019-03-24T01:37:42.425Z,3.84
2019-03-24T01:40:13.595Z,3.72
2019-03-24T01:42:44.496Z,3.84
2019-03-24T01:45:15.601Z,3.81
2019-03-24T01:47:46.646Z,3.69
2019-03-24T01:50:17.504Z,3.77
2019-03-24T01:52:48.587Z,3.84
2019-03-24T01:55:19.461Z,3.89
2019-03-24T01:57:50.276Z,3.89
2019-03-24T02:00:21.352Z,3.71
2019-03-24T02:02:52.255Z,3.53
2019-03-24T02:05:23.535Z,3.53
2019-03-24T02:07:54.441Z,3.59
2019-03-24T02:10:27.085Z,3.57
2019-03-24T02:13:01.050Z,3.42
2019-03-24T02:15:32.005Z,3.61
2019-03-24T02:18:03.025Z,3.46
2019-03-24T02:20:34.078Z,3.36
2019-03-24T02:23:05.075Z,3.46
2019-03-24T02:25:36.228Z,3.32
2019-03-24T02:28:07.246Z,3.55
2019-03-24T02:30:38.096Z,3.57
2019-03-24T02:33:09.035Z,3.59
2019-03-24T02:35:40.190Z,3.54
2019-03-24T02:38:12.109Z,3.51
2019-03-24T02:40:46.006Z,3.54
2019-03-24T02:43:18.123Z,3.51
2019-03-24T02:45:49.088Z,3.52
2019-03-24T02:48:20.040Z,3.50
2019-03-24T02:50:51.092Z,3.47
2019-03-24T02:53:24.221Z,3.30
2019-03-24T02:55:55.289Z,3.16
2019-03-24T02:58:26.079Z,3.21
2019-03-24T03:00:57.151Z,3.14
2019-03-24T03:03:28.171Z,3.10
2019-03-24T03:05:59.456Z,3.08
2019-03-24T03:08:30.401Z,3.01
2019-03-24T03:11:01.845Z,3.10
2019-03-24T03:13:32.891Z,3.04
2019-03-24T03:16:03.743Z,3.13
2019-03-24T03:18:34.609Z,3.14
2019-03-24T03:21:05.593Z,3.12
2019-03-24T03:23:36.647Z,3.13
2019-03-24T03:26:07.651Z,3.15
2019-03-24T03:28:38.741Z,3.13
2019-03-24T03:31:09.688Z,2.77
2019-03-24T03:33:40.795Z,2.99
2019-03-24T03:36:11.612Z,3.03
2019-03-24T03:38:42.598Z,3.06
2019-03-24T03:41:13.536Z,3.02
2019-03-24T03:43:44.472Z,3.06
2019-03-24T03:46:16.072Z,3.21
2019-03-24T03:48:47.024Z,3.33
2019-03-24T03:51:17.891Z,3.34
2019-03-24T03:53:48.753Z,3.43
2019-03-24T03:56:19.687Z,3.42
2019-03-24T03:58:50.578Z,3.50
2019-03-24T04:01:21.576Z,3.63
2019-03-24T04:03:52.512Z,3.57
2019-03-24T04:06:23.337Z,3.67
2019-03-24T04:08:54.118Z,3.62
2019-03-24T04:11:24.995Z,3.74
2019-03-24T04:13:55.865Z,3.87
2019-03-24T04:16:26.953Z,3.74
2019-03-24T04:19:00.301Z,3.95
2019-03-24T04:21:31.326Z,4.09
2019-03-24T04:27:01.607Z,4.14
2019-03-24T04:29:32.888Z,4.17
2019-03-24T04:32:03.907Z,4.13
2019-03-24T04:34:36.645Z,3.99
2019-03-24T04:37:07.725Z,4.06
2019-03-24T04:39:38.459Z,4.15
2019-03-24T04:42:10.874Z,4.16
2019-03-24T04:44:42.637Z,4.08
2019-03-24T04:47:16.856Z,4.08
2019-03-24T04:49:50.047Z,4.08
2019-03-24T04:52:29.843Z,4.08
2019-03-24T04:59:22.931Z,4.01
2019-03-24T05:02:10.023Z,3.99
2019-03-24T05:05:08.216Z,4.15
2019-03-24T05:07:44.405Z,4.16
2019-03-24T05:10:27.029Z,4.13
2019-03-24T05:12:58.492Z,4.04
2019-03-24T05:15:31.079Z,4.14
2019-03-24T05:21:10.425Z,4.10
2019-03-24T05:23:41.547Z,4.20
2019-03-24T05:26:12.463Z,4.19
2019-03-24T05:28:43.637Z,4.03
2019-03-24T05:31:14.607Z,4.00
2019-03-24T05:33:45.523Z,4.13
2019-03-24T05:36:16.733Z,4.29
2019-03-24T05:38:47.701Z,4.30
2019-03-24T05:41:19.501Z,4.16
2019-03-24T05:43:50.706Z,3.86
2019-03-24T05:46:24.921Z,3.96
2019-03-24T05:48:58.623Z,3.87
2019-03-24T05:51:29.435Z,3.93
2019-03-24T05:54:00.325Z,4.18
2019-03-24T05:56:31.236Z,4.41
2019-03-24T05:59:02.460Z,4.46
2019-03-24T06:01:33.528Z,4.22
2019-03-24T06:04:04.474Z,3.98
2019-03-24T06:06:37.381Z,3.97
2019-03-24T06:09:15.333Z,4.02
2019-03-24T06:11:50.676Z,3.82
2019-03-24T06:14:24.732Z,4.00
2019-03-24T06:16:57.430Z,4.13
2019-03-24T06:19:28.610Z,4.18
2019-03-24T06:22:33.869Z,4.31
2019-03-24T06:25:02.101Z,4.30
2019-03-24T06:27:48.443Z,4.58
2019-03-24T06:30:22.210Z,4.53
2019-03-24T06:32:53.227Z,4.52
2019-03-24T06:35:24.060Z,4.76
2019-03-24T06:37:55.063Z,4.54
2019-03-24T06:40:25.996Z,4.68
2019-03-24T06:42:59.716Z,4.81
2019-03-24T06:45:37.621Z,4.95
2019-03-24T06:48:08.599Z,4.90
2019-03-24T06:50:39.596Z,4.78
2019-03-24T06:53:13.679Z,4.85
2019-03-24T06:55:48.400Z,4.78
2019-03-24T06:58:21.175Z,4.90
2019-03-24T07:00:52.148Z,4.90
2019-03-24T07:03:23.278Z,4.93
2019-03-24T07:05:56.733Z,5.18
2019-03-24T07:08:28.233Z,5.44
2019-03-24T07:10:59.273Z,5.30
2019-03-24T07:13:36.189Z,5.19
2019-03-24T07:16:09.741Z,5.20
2019-03-24T07:18:40.872Z,5.50
2019-03-24T07:21:12.146Z,5.76
2019-03-24T07:23:43.182Z,6.09
2019-03-24T07:26:14.922Z,6.30
2019-03-24T07:28:49.245Z,6.51
2019-03-24T07:31:23.173Z,6.57
2019-03-24T07:33:54.492Z,6.58
2019-03-24T07:36:25.622Z,6.39
2019-03-24T07:38:56.676Z,6.44
2019-03-24T07:41:28.130Z,6.35
2019-03-24T07:43:59.358Z,6.22
2019-03-24T07:46:30.599Z,6.10
2019-03-24T07:49:01.694Z,5.85
2019-03-24T07:51:32.887Z,5.99
2019-03-24T07:54:07.035Z,6.33
2019-03-24T07:56:40.062Z,6.52
2019-03-24T07:59:14.059Z,6.54
2019-03-24T08:01:45.041Z,6.52
2019-03-24T08:04:20.479Z,6.19
2019-03-24T08:06:51.503Z,6.08
2019-03-24T08:09:26.430Z,6.13
2019-03-24T08:12:00.141Z,6.35
2019-03-24T08:14:31.578Z,6.38
2019-03-24T08:17:02.601Z,6.16
2019-03-24T08:19:33.611Z,6.47
2019-03-24T08:22:09.774Z,6.69
2019-03-24T08:24:50.417Z,6.68
2019-03-24T08:27:24.114Z,6.40
2019-03-24T08:29:56.696Z,6.07
2019-03-24T08:32:27.579Z,6.06
2019-03-24T08:34:58.583Z,6.23
2019-03-24T08:37:32.109Z,6.43
2019-03-24T08:40:03.729Z,6.34
2019-03-24T08:42:34.824Z,6.37
2019-03-24T08:45:08.683Z,6.41
2019-03-24T08:47:42.567Z,6.94
2019-03-24T08:50:13.611Z,7.26
2019-03-24T08:52:44.734Z,7.69
2019-03-24T08:55:15.667Z,7.88
2019-03-24T08:57:49.823Z,8.29
2019-03-24T09:00:30.997Z,8.29
2019-03-24T09:03:02.090Z,8.38
2019-03-24T09:05:35.527Z,7.98
2019-03-24T09:08:07.013Z,8.42
2019-03-24T09:10:37.883Z,8.85
2019-03-24T09:13:09.059Z,9.40
2019-03-24T09:15:40.018Z,9.79
2019-03-24T09:18:14.294Z,8.90
2019-03-24T09:20:45.175Z,8.80
2019-03-24T09:23:16.830Z,8.36
2019-03-24T09:25:49.042Z,8.19
2019-03-24T09:28:21.798Z,8.01
2019-03-24T09:30:55.523Z,8.19
2019-03-24T09:33:26.489Z,8.43
2019-03-24T09:35:57.535Z,8.47
2019-03-24T09:38:29.796Z,8.71
2019-03-24T09:41:03.553Z,8.67
2019-03-24T09:43:34.538Z,7.92
2019-03-24T09:46:05.759Z,7.63
2019-03-24T09:48:40.657Z,7.90
2019-03-24T09:51:15.419Z,8.30
2019-03-24T09:53:47.829Z,8.62
2019-03-24T09:56:20.609Z,8.92
2019-03-24T09:58:51.928Z,8.78
2019-03-24T10:01:27.040Z,8.94
2019-03-24T10:04:02.398Z,8.81
2019-03-24T10:06:36.146Z,8.90
2019-03-24T10:09:08.166Z,9.03
2019-03-24T10:11:42.136Z,9.29
2019-03-24T10:14:13.189Z,9.20
2019-03-24T10:16:44.495Z,9.75
2019-03-24T10:19:18.709Z,10.45
2019-03-24T10:21:50.222Z,10.12
2019-03-24T10:24:21.434Z,9.69
2019-03-24T10:26:55.320Z,9.31
2019-03-24T10:29:26.314Z,9.01
2019-03-24T10:31:57.374Z,8.98
2019-03-24T10:34:35.160Z,9.31
2019-03-24T10:37:07.306Z,9.26
2019-03-24T10:39:38.588Z,9.33
2019-03-24T10:42:09.535Z,9.28
2019-03-24T10:44:44.422Z,9.15
2019-03-24T10:47:15.530Z,8.97
2019-03-24T10:49:46.539Z,9.00
2019-03-24T10:52:21.169Z,9.51
2019-03-24T10:54:54.219Z,9.58
2019-03-24T10:57:25.097Z,9.40
2019-03-24T10:59:56.174Z,9.34
2019-03-24T11:02:33.118Z,9.38
2019-03-24T11:05:04.055Z,9.01
2019-03-24T11:07:37.008Z,9.22
2019-03-24T11:10:13.159Z,9.54
2019-03-24T11:12:44.004Z,9.67
2019-03-24T11:15:15.594Z,10.10
2019-03-24T11:17:47.760Z,10.12
2019-03-24T11:20:18.880Z,10.07
2019-03-24T11:22:49.742Z,9.90
2019-03-24T11:25:22.396Z,10.27
2019-03-24T11:27:53.940Z,10.81
2019-03-24T11:30:25.028Z,10.80
2019-03-24T11:32:57.172Z,10.69
2019-03-24T11:35:28.254Z,10.69
2019-03-24T11:37:59.385Z,10.79
2019-03-24T11:40:30.465Z,10.81
2019-03-24T11:43:01.892Z,10.83
2019-03-24T11:45:33.480Z,10.61
2019-03-24T11:48:06.986Z,10.60
2019-03-24T11:50:37.915Z,10.92
2019-03-24T11:53:10.908Z,11.13
2019-03-24T11:55:42.046Z,11.52
2019-03-24T11:58:15.300Z,11.72
2019-03-24T12:00:46.397Z,11.63
2019-03-24T12:03:18.532Z,11.13
2019-03-24T12:05:49.499Z,10.82
2019-03-24T12:08:20.557Z,11.09
2019-03-24T12:10:51.577Z,10.95
2019-03-24T12:13:22.686Z,11.00
2019-03-24T12:15:53.607Z,10.99
2019-03-24T12:18:30.282Z,10.95
2019-03-24T12:21:01.877Z,10.89
2019-03-24T12:23:32.991Z,11.13
2019-03-24T12:26:04.167Z,11.08
2019-03-24T12:28:37.455Z,11.32
2019-03-24T12:31:09.981Z,11.55
2019-03-24T12:33:41.378Z,11.41
2019-03-24T12:36:12.491Z,11.43
2019-03-24T12:38:49.473Z,11.32
2019-03-24T12:41:22.810Z,11.04
2019-03-24T12:43:53.599Z,10.94
2019-03-24T12:46:24.279Z,10.92
2019-03-24T12:48:55.091Z,11.07
2019-03-24T12:51:25.909Z,11.34
2019-03-24T12:53:57.035Z,11.37
2019-03-24T12:56:27.725Z,10.98
2019-03-24T12:58:59.433Z,10.87
2019-03-24T13:01:33.015Z,10.83
2019-03-24T13:04:03.759Z,10.92
2019-03-24T13:06:36.165Z,11.11
2019-03-24T13:09:08.306Z,11.05
2019-03-24T13:11:39.483Z,11.14
2019-03-24T13:14:11.363Z,11.30
2019-03-24T13:16:45.198Z,10.92
2019-03-24T13:19:15.920Z,10.68
2019-03-24T13:21:47.403Z,10.95
2019-03-24T13:24:18.091Z,11.20
2019-03-24T13:26:50.543Z,11.10
2019-03-24T13:29:22.582Z,10.93
2019-03-24T13:31:56.019Z,10.53
2019-03-24T13:34:29.617Z,10.24
2019-03-24T13:37:00.674Z,10.09
2019-03-24T13:39:33.062Z,10.05
2019-03-24T13:42:04.014Z,10.10
2019-03-24T13:44:34.811Z,10.10
2019-03-24T13:47:05.664Z,9.96
2019-03-24T13:49:36.471Z,9.96
2019-03-24T13:52:07.165Z,9.97
2019-03-24T13:54:37.895Z,9.83
2019-03-24T13:57:11.792Z,9.76
2019-03-24T13:59:42.551Z,9.67
2019-03-24T14:02:13.230Z,9.65
2019-03-24T14:04:43.967Z,9.57
2019-03-24T14:07:16.983Z,9.35
2019-03-24T14:09:50.480Z,9.34
2019-03-24T14:12:21.242Z,9.45
2019-03-24T14:14:52.218Z,9.34
2019-03-24T14:17:25.900Z,9.41
2019-03-24T14:19:57.920Z,9.47
2019-03-24T14:22:28.790Z,9.25
2019-03-24T14:24:59.486Z,9.32
2019-03-24T14:27:32.704Z,9.42
2019-03-24T14:30:03.572Z,9.44
2019-03-24T14:32:38.313Z,9.50
2019-03-24T14:35:09.376Z,9.31
2019-03-24T14:37:40.837Z,9.37
2019-03-24T14:40:11.990Z,9.40
2019-03-24T14:42:42.782Z,9.41
2019-03-24T14:45:13.958Z,9.38
2019-03-24T14:47:44.820Z,9.50
2019-03-24T14:50:15.882Z,9.48
2019-03-24T14:52:50.776Z,9.52
2019-03-24T14:55:22.326Z,9.52
2019-03-24T14:57:54.798Z,9.49
2019-03-24T15:00:36.032Z,9.30
2019-03-24T15:03:07.301Z,9.28
2019-03-24T15:05:38.394Z,9.35
2019-03-24T15:08:11.363Z,9.25
2019-03-24T15:10:47.483Z,9.11
2019-03-24T15:13:18.645Z,9.20
2019-03-24T15:15:49.436Z,9.38
2019-03-24T15:18:20.422Z,9.25
2019-03-24T15:21:04.910Z,9.24
2019-03-24T15:23:32.761Z,9.34
2019-03-24T15:26:05.022Z,9.28
2019-03-24T15:28:36.434Z,9.29
2019-03-24T15:31:07.698Z,9.34
2019-03-24T15:33:38.932Z,9.32
2019-03-24T15:36:09.984Z,9.35
2019-03-24T15:38:41.208Z,9.48
2019-03-24T15:41:18.379Z,9.45
2019-03-24T15:43:49.663Z,9.44
2019-03-24T15:46:20.925Z,9.39
2019-03-24T15:48:51.854Z,9.32
2019-03-24T15:51:22.998Z,9.35
2019-03-24T15:53:55.196Z,9.39
2019-03-24T15:56:26.539Z,9.48
2019-03-24T15:59:02.844Z,9.50
2019-03-24T16:01:33.952Z,9.51
2019-03-24T16:04:04.887Z,9.48
2019-03-24T16:06:35.874Z,9.80
2019-03-24T16:09:09.929Z,10.02
2019-03-24T16:11:41.131Z,10.28
2019-03-24T16:14:12.095Z,10.52
2019-03-24T16:16:43.033Z,10.63
2019-03-24T16:19:13.872Z,10.71
2019-03-24T16:21:44.773Z,10.87
2019-03-24T16:24:15.935Z,10.71
2019-03-24T16:26:47.952Z,10.60
2019-03-24T16:29:18.788Z,10.54
2019-03-24T16:31:49.777Z,10.66
2019-03-24T16:34:23.502Z,10.84
2019-03-24T16:36:54.398Z,11.08
2019-03-24T16:39:25.341Z,11.22
2019-03-24T16:42:00.583Z,11.25
2019-03-24T16:44:31.409Z,11.34
2019-03-24T16:47:05.292Z,11.27
2019-03-24T16:49:36.310Z,11.30
2019-03-24T16:52:08.679Z,11.27
2019-03-24T16:54:39.755Z,11.38
2019-03-24T16:57:10.627Z,11.52
2019-03-24T16:59:42.016Z,11.35
2019-03-24T17:02:18.577Z,10.99
2019-03-24T17:04:52.069Z,10.80
2019-03-24T17:07:23.047Z,10.78
2019-03-24T17:09:56.080Z,10.51
2019-03-24T17:12:36.991Z,10.19
2019-03-24T17:15:10.563Z,10.09
2019-03-24T17:17:41.769Z,9.66
2019-03-24T17:20:16.584Z,9.29
2019-03-24T17:22:52.063Z,9.15
2019-03-24T17:25:23.383Z,8.97
2019-03-24T17:28:01.255Z,8.83
2019-03-24T17:30:33.698Z,8.74
2019-03-24T17:33:04.878Z,8.65
2019-03-24T17:35:35.960Z,8.56
2019-03-24T17:38:06.991Z,8.48
2019-03-24T17:40:39.084Z,8.53
2019-03-24T17:43:12.233Z,8.31
2019-03-24T17:45:44.270Z,8.20
2019-03-24T17:48:16.103Z,8.16
2019-03-24T17:50:47.150Z,8.04
2019-03-24T17:53:18.035Z,7.98
2019-03-24T17:55:49.073Z,7.93
2019-03-24T17:58:21.297Z,7.90
2019-03-24T18:00:56.657Z,7.90
2019-03-24T18:03:32.909Z,7.80
2019-03-24T18:06:04.052Z,7.70
2019-03-24T18:08:35.337Z,7.73
2019-03-24T18:11:07.750Z,7.62
2019-03-24T18:13:39.721Z,7.57
2019-03-24T18:16:20.281Z,7.51
2019-03-24T18:18:46.434Z,7.55
2019-03-24T18:21:19.207Z,7.46
2019-03-24T18:23:51.535Z,7.45
2019-03-24T18:26:28.360Z,7.36
2019-03-24T18:29:01.992Z,7.43
2019-03-24T18:31:36.100Z,7.35
2019-03-24T18:34:08.494Z,7.26
2019-03-24T18:36:40.855Z,7.21
2019-03-24T18:39:16.225Z,7.25
2019-03-24T18:41:47.625Z,7.25
2019-03-24T18:44:20.438Z,7.24
2019-03-24T18:47:00.375Z,7.18
2019-03-24T18:49:35.434Z,7.14
2019-03-24T18:52:09.961Z,7.08
2019-03-24T18:54:40.921Z,7.02
2019-03-24T18:57:12.237Z,7.00
2019-03-24T18:59:43.185Z,7.03
2019-03-24T19:02:14.461Z,7.06
2019-03-24T19:04:49.042Z,7.01
2019-03-24T19:07:20.316Z,7.02
2019-03-24T19:09:51.204Z,6.98
2019-03-24T19:12:22.089Z,6.90
2019-03-24T19:14:53.024Z,6.89
2019-03-24T19:17:23.917Z,6.82
2019-03-24T19:19:54.952Z,6.76
2019-03-24T19:22:33.479Z,6.71
2019-03-24T19:24:58.745Z,6.68
2019-03-24T19:27:29.502Z,6.62
2019-03-24T19:30:00.390Z,6.53
2019-03-24T19:32:31.165Z,6.58
2019-03-24T19:35:02.170Z,6.51
2019-03-24T19:37:33.448Z,6.50
2019-03-24T19:40:04.497Z,6.46
2019-03-24T19:42:35.371Z,6.44
2019-03-24T19:45:06.352Z,6.41
2019-03-24T19:47:38.831Z,6.45
2019-03-24T19:50:09.866Z,6.42
2019-03-24T19:52:44.867Z,6.55
2019-03-24T19:55:14.306Z,6.65
2019-03-24T19:57:47.361Z,6.75
2019-03-24T20:00:18.421Z,6.79
2019-03-24T20:02:49.260Z,6.86
2019-03-24T20:05:20.264Z,6.94
2019-03-24T20:07:51.178Z,6.91
2019-03-24T20:10:22.004Z,6.94
2019-03-24T20:12:53.197Z,7.08
2019-03-24T20:15:31.328Z,7.03
2019-03-24T20:18:05.300Z,7.11
2019-03-24T20:20:36.277Z,7.10
2019-03-24T20:23:07.363Z,7.10
2019-03-24T20:25:39.994Z,7.16
2019-03-24T20:28:12.952Z,7.19
2019-03-24T20:30:47.099Z,7.24
2019-03-24T20:33:20.903Z,7.27
2019-03-24T20:35:51.752Z,7.22
2019-03-24T20:38:22.528Z,7.22
2019-03-24T20:40:53.374Z,7.20
2019-03-24T20:43:24.164Z,7.22
2019-03-24T20:45:59.411Z,7.18
2019-03-24T20:48:30.228Z,7.23
2019-03-24T20:51:01.119Z,7.25
2019-03-24T20:53:32.303Z,7.18
2019-03-24T20:56:03.614Z,7.14
2019-03-24T20:58:36.349Z,7.09
2019-03-24T21:01:07.460Z,7.05
2019-03-24T21:03:38.274Z,6.88
2019-03-24T21:06:09.325Z,6.84
2019-03-24T21:08:40.182Z,6.93
2019-03-24T21:11:12.289Z,6.94
2019-03-24T21:13:49.426Z,6.77
2019-03-24T21:16:30.095Z,6.71
2019-03-24T21:19:08.721Z,6.65
2019-03-24T21:21:42.561Z,6.62
2019-03-24T21:24:13.413Z,6.56
2019-03-24T21:26:44.242Z,6.47
2019-03-24T21:29:16.466Z,6.49
2019-03-24T21:31:47.502Z,6.42
2019-03-24T21:34:18.857Z,6.46
2019-03-24T21:36:49.791Z,6.33
2019-03-24T21:39:21.257Z,6.30
2019-03-24T21:41:52.420Z,6.24
2019-03-24T21:44:23.207Z,6.19
2019-03-24T21:46:54.187Z,6.15
2019-03-24T21:49:25.146Z,6.05
2019-03-24T21:51:56.220Z,6.09
2019-03-24T21:54:28.142Z,6.12
2019-03-24T21:56:59.147Z,6.09
2019-03-24T21:59:31.955Z,6.09
2019-03-24T22:02:02.970Z,6.03
2019-03-24T22:04:34.413Z,6.01
2019-03-24T22:07:06.783Z,6.11
2019-03-24T22:09:37.656Z,6.03
2019-03-24T22:12:11.088Z,6.02
2019-03-24T22:14:41.889Z,6.00
2019-03-24T22:17:12.726Z,6.14
2019-03-24T22:19:43.492Z,6.17
2019-03-24T22:22:14.571Z,6.17
2019-03-24T22:24:45.552Z,6.09
2019-03-24T22:27:16.376Z,6.12
2019-03-24T22:29:47.248Z,6.15
2019-03-24T22:32:20.524Z,6.12
2019-03-24T22:34:51.247Z,6.17
2019-03-24T22:37:23.099Z,6.11
2019-03-24T22:39:53.821Z,6.00
2019-03-24T22:42:24.683Z,5.94
2019-03-24T22:44:55.559Z,5.77
2019-03-24T22:47:26.414Z,5.72
2019-03-24T22:49:57.469Z,5.69
2019-03-24T22:52:28.395Z,5.67
2019-03-24T22:54:59.233Z,5.69
2019-03-24T22:57:32.571Z,5.70
2019-03-24T23:00:02.467Z,5.72
2019-03-24T23:02:35.033Z,5.72
2019-03-24T23:05:07.387Z,5.74
2019-03-24T23:07:38.179Z,5.64
2019-03-24T23:10:09.083Z,5.63
2019-03-24T23:12:41.247Z,5.69
2019-03-24T23:15:13.269Z,5.66
2019-03-24T23:17:44.187Z,5.63
2019-03-24T23:20:14.965Z,5.52
2019-03-24T23:22:45.776Z,5.50
2019-03-24T23:25:19.345Z,5.49
2019-03-24T23:27:50.182Z,5.47
2019-03-24T23:30:21.235Z,5.46
2019-03-24T23:32:52.243Z,5.41
2019-03-24T23:35:23.190Z,5.31
2019-03-24T23:37:55.208Z,5.27
2019-03-24T23:40:26.045Z,5.23
2019-03-24T23:42:56.867Z,5.25
2019-03-24T23:45:27.660Z,5.15
2019-03-24T23:47:58.549Z,5.20
2019-03-24T23:50:29.352Z,5.06
2019-03-24T23:53:03.333Z,4.99
2019-03-24T23:55:34.251Z,5.05
2019-03-24T23:58:05.034Z,4.95
